This is the latest recevied weather packets stored in our database for station/object KO5MO-11. If no packets are shown the sender has not sent any weather packets the latest 10 day(s).
| Time | Temp. | Humidity | Pressure | Rain* | Wind** | Luminosity | Snow |
|---|---|---|---|---|---|---|---|
| 1777776872 | 26.11° C | 36% | 1007.7 hPa | - | - | 796 W/m² | - |
| 1777776272 | 24.44° C | 41% | 1007.6 hPa | - | - | 762 W/m² | - |
| 1777775672 | 23.89° C | 37% | 1007.6 hPa | - | - | 752 W/m² | - |
| 1777775072 | 24.44° C | 36% | 1007.5 hPa | - | - | 762 W/m² | - |
| 1777774472 | 26.11° C | 35% | 1007.5 hPa | - | - | 798 W/m² | - |
| 1777773872 | 25° C | 40% | 1007.5 hPa | - | - | 775 W/m² | - |
| 1777773272 | 23.33° C | 37% | 1007.5 hPa | - | - | 748 W/m² | - |
| 1777772672 | 23.89° C | 37% | 1007.6 hPa | - | - | 753 W/m² | - |
| 1777772072 | 24.44° C | 37% | 1007.7 hPa | - | - | 766 W/m² | - |
| 1777771472 | 26.11° C | 36% | 1007.8 hPa | - | - | 797 W/m² | - |
| 1777770872 | 24.44° C | 41% | 1007.8 hPa | - | - | 760 W/m² | - |
| 1777770272 | 23.33° C | 37% | 1007.9 hPa | - | - | 749 W/m² | - |
| 1777769672 | 23.89° C | 37% | 1007.8 hPa | - | - | 757 W/m² | - |
| 1777769072 | 25° C | 36% | 1007.9 hPa | - | - | 776 W/m² | - |
| 1777768472 | 26.67° C | 36% | 1008 hPa | - | - | 800 W/m² | - |
| 1777767872 | 23.89° C | 39% | 1007.9 hPa | - | - | 758 W/m² | - |
| 1777767272 | 23.89° C | 37% | 1007.9 hPa | - | - | 755 W/m² | - |
| 1777766672 | 24.44° C | 37% | 1008 hPa | - | - | 763 W/m² | - |
| 1777766072 | 26.11° C | 36% | 1007.9 hPa | - | - | 792 W/m² | - |
| 1777765472 | 25° C | 41% | 1008 hPa | - | - | 775 W/m² | - |
| 1777764872 | 23.89° C | 38% | 1008.1 hPa | - | - | 751 W/m² | - |
| 1777764272 | 23.89° C | 37% | 1008 hPa | - | - | 757 W/m² | - |
| 1777763672 | 24.44° C | 37% | 1008.1 hPa | - | - | 763 W/m² | - |
| 1777763072 | 26.11° C | 36% | 1008.2 hPa | - | - | 791 W/m² | - |
| 1777762472 | 25.56° C | 41% | 1008.2 hPa | - | - | 780 W/m² | - |
* Rain since midnight (hover to see other rain measurements)
** Current wind speed in m/s (hover to see current wind gust speed)